Terminal Aerodrome Forecast
Issued by NWS Detroit/Pontiac, MI

Home | Current Version | Previous Version | Text Only | Print | Product List | Glossary On
Versions: 1 2 3 4 5 6 7 8 9 10 11 12 13 14 15 16 17 18 19
174
FTUS43 KDTX 212157 AAB
TAFFNT
TAF AMD
KFNT 212157Z 2122/2218 VRB04KT 2SM -RA BR SCT008 OVC015
     FM220400 10007KT 1SM RA BR OVC004
     FM220700 10010KT 1/2SM RA FG VV002
     FM221600 13007KT 1SM -SHRA BR OVC004=

USA.gov is the U.S. government's official web portal to all federal, state and local government web resources and services.